sensor_id;sensor_type;location;lat;lon;timestamp;pressure;altitude;pressure_sealevel;temperature;humidity
56400;BME280;42298;53.638;9.876;2023-05-19T00:01:36;102683.25;;;9.78;59.55
56400;BME280;42298;53.638;9.876;2023-05-19T00:04:02;102684.28;;;9.72;59.54
56400;BME280;42298;53.638;9.876;2023-05-19T00:06:30;102693.91;;;9.74;59.17
56400;BME280;42298;53.638;9.876;2023-05-19T00:08:58;102684.84;;;9.74;59.95
56400;BME280;42298;53.638;9.876;2023-05-19T00:11:24;102697.25;;;9.77;59.44
56400;BME280;42298;53.638;9.876;2023-05-19T00:13:52;102694.13;;;9.68;59.27
56400;BME280;42298;53.638;9.876;2023-05-19T00:16:17;102690.78;;;9.66;59.76
56400;BME280;42298;53.638;9.876;2023-05-19T00:18:43;102683.13;;;9.68;60.86
56400;BME280;42298;53.638;9.876;2023-05-19T00:21:09;102687.34;;;9.76;60.27
56400;BME280;42298;53.638;9.876;2023-05-19T00:23:35;102690.53;;;9.67;60.18
56400;BME280;42298;53.638;9.876;2023-05-19T00:26:00;102681.66;;;9.60;59.30
56400;BME280;42298;53.638;9.876;2023-05-19T00:28:25;102684.00;;;9.52;60.40
56400;BME280;42298;53.638;9.876;2023-05-19T00:30:52;102683.13;;;9.46;60.12
56400;BME280;42298;53.638;9.876;2023-05-19T00:33:18;102677.66;;;9.30;60.96
56400;BME280;42298;53.638;9.876;2023-05-19T00:35:44;102676.78;;;9.24;60.81
56400;BME280;42298;53.638;9.876;2023-05-19T00:38:09;102678.94;;;9.22;60.33
56400;BME280;42298;53.638;9.876;2023-05-19T00:40:35;102669.53;;;9.18;61.02
56400;BME280;42298;53.638;9.876;2023-05-19T00:43:00;102680.63;;;9.23;60.66
56400;BME280;42298;53.638;9.876;2023-05-19T00:45:27;102682.28;;;9.24;60.92
56400;BME280;42298;53.638;9.876;2023-05-19T00:47:53;102662.41;;;9.17;60.98
56400;BME280;42298;53.638;9.876;2023-05-19T00:50:18;102663.19;;;9.18;61.07
56400;BME280;42298;53.638;9.876;2023-05-19T00:52:44;102670.13;;;9.20;nan
56400;BME280;42298;53.638;9.876;2023-05-19T00:55:10;102670.13;;;9.20;60.73
56400;BME280;42298;53.638;9.876;2023-05-19T00:57:36;102666.22;;;9.16;60.41
56400;BME280;42298;53.638;9.876;2023-05-19T01:00:03;102667.94;;;9.22;60.95
56400;BME280;42298;53.638;9.876;2023-05-19T01:02:29;102664.88;;;9.19;60.50
56400;BME280;42298;53.638;9.876;2023-05-19T01:04:57;102668.44;;;9.19;60.93
56400;BME280;42298;53.638;9.876;2023-05-19T01:07:24;102667.13;;;9.22;61.84
56400;BME280;42298;53.638;9.876;2023-05-19T01:09:50;102672.41;;;9.28;61.11
56400;BME280;42298;53.638;9.876;2023-05-19T01:12:16;102664.13;;;9.23;61.17
56400;BME280;42298;53.638;9.876;2023-05-19T01:14:41;102662.91;;;9.36;62.56
56400;BME280;42298;53.638;9.876;2023-05-19T01:31:11;102666.66;;;9.30;60.69
56400;BME280;42298;53.638;9.876;2023-05-19T01:33:39;102677.50;;;9.36;61.18
56400;BME280;42298;53.638;9.876;2023-05-19T01:36:06;102669.09;;;9.26;60.77
56400;BME280;42298;53.638;9.876;2023-05-19T01:38:33;102668.13;;;9.16;61.00
56400;BME280;42298;53.638;9.876;2023-05-19T01:40:59;102680.03;;;9.21;60.90
56400;BME280;42298;53.638;9.876;2023-05-19T01:43:28;102677.53;;;9.20;61.72
56400;BME280;42298;53.638;9.876;2023-05-19T01:45:55;102669.78;;;9.17;61.31
56400;BME280;42298;53.638;9.876;2023-05-19T01:48:23;102673.91;;;9.14;61.08
56400;BME280;42298;53.638;9.876;2023-05-19T01:50:49;102677.97;;;9.12;61.61
56400;BME280;42298;53.638;9.876;2023-05-19T01:53:15;102682.44;;;9.18;62.47
56400;BME280;42298;53.638;9.876;2023-05-19T01:55:48;102690.78;;;9.23;62.51
56400;BME280;42298;53.638;9.876;2023-05-19T01:58:24;102695.19;;;9.24;61.03
56400;BME280;42298;53.638;9.876;2023-05-19T02:09:01;102691.97;;;8.94;61.23
56400;BME280;42298;53.638;9.876;2023-05-19T02:12:18;102694.97;;;8.92;61.53
56400;BME280;42298;53.638;9.876;2023-05-19T02:16:56;102687.09;;;8.79;61.87
56400;BME280;42298;53.638;9.876;2023-05-19T02:19:25;102683.19;;;8.75;61.11
56400;BME280;42298;53.638;9.876;2023-05-19T02:21:50;102672.84;;;8.66;61.80
56400;BME280;42298;53.638;9.876;2023-05-19T02:24:16;102665.50;;;8.71;61.79
56400;BME280;42298;53.638;9.876;2023-05-19T02:26:42;102677.19;;;8.78;61.53
56400;BME280;42298;53.638;9.876;2023-05-19T02:29:08;102678.25;;;8.77;60.92
56400;BME280;42298;53.638;9.876;2023-05-19T02:31:33;102673.50;;;8.73;60.92
56400;BME280;42298;53.638;9.876;2023-05-19T02:33:58;102682.19;;;8.81;61.30
56400;BME280;42298;53.638;9.876;2023-05-19T02:36:24;102666.19;;;8.78;61.21
56400;BME280;42298;53.638;9.876;2023-05-19T02:38:50;102671.75;;;8.83;60.94
56400;BME280;42298;53.638;9.876;2023-05-19T02:41:15;102671.25;;;8.86;60.76
56400;BME280;42298;53.638;9.876;2023-05-19T02:43:41;102667.59;;;8.81;60.65
56400;BME280;42298;53.638;9.876;2023-05-19T02:46:06;102677.84;;;8.85;61.71
56400;BME280;42298;53.638;9.876;2023-05-19T02:48:31;102663.84;;;8.87;61.82
56400;BME280;42298;53.638;9.876;2023-05-19T02:50:57;102674.69;;;8.93;61.96
56400;BME280;42298;53.638;9.876;2023-05-19T02:53:23;102679.16;;;8.99;61.59
56400;BME280;42298;53.638;9.876;2023-05-19T02:55:49;102670.41;;;9.02;61.37
56400;BME280;42298;53.638;9.876;2023-05-19T02:58:15;102668.16;;;8.99;61.86
56400;BME280;42298;53.638;9.876;2023-05-19T03:00:40;102660.50;;;9.01;61.69
56400;BME280;42298;53.638;9.876;2023-05-19T03:03:08;102664.16;;;9.07;62.08
56400;BME280;42298;53.638;9.876;2023-05-19T03:05:34;102668.81;;;9.06;61.73
56400;BME280;42298;53.638;9.876;2023-05-19T03:08:00;102669.91;;;9.05;62.01
56400;BME280;42298;53.638;9.876;2023-05-19T03:10:25;102672.16;;;9.08;61.92
56400;BME280;42298;53.638;9.876;2023-05-19T03:12:51;102654.19;;;9.01;62.51
56400;BME280;42298;53.638;9.876;2023-05-19T03:15:16;102666.41;;;9.10;61.91
56400;BME280;42298;53.638;9.876;2023-05-19T03:17:43;102671.44;;;9.18;63.65
56400;BME280;42298;53.638;9.876;2023-05-19T03:20:09;102652.09;;;9.29;62.72
56400;BME280;42298;53.638;9.876;2023-05-19T03:22:35;102651.06;;;9.35;63.33
56400;BME280;42298;53.638;9.876;2023-05-19T03:25:00;102647.03;;;9.43;63.27
56400;BME280;42298;53.638;9.876;2023-05-19T03:27:28;102650.03;;;9.63;62.71
56400;BME280;42298;53.638;9.876;2023-05-19T03:29:53;102653.94;;;9.67;62.71
56400;BME280;42298;53.638;9.876;2023-05-19T03:32:18;102651.75;;;9.69;62.56
56400;BME280;42298;53.638;9.876;2023-05-19T03:34:44;102648.31;;;9.79;61.75
56400;BME280;42298;53.638;9.876;2023-05-19T03:37:09;102644.09;;;9.71;61.89
56400;BME280;42298;53.638;9.876;2023-05-19T03:39:35;102654.53;;;9.69;62.27
56400;BME280;42298;53.638;9.876;2023-05-19T03:42:00;102651.44;;;9.65;62.29
56400;BME280;42298;53.638;9.876;2023-05-19T03:44:25;102660.91;;;9.74;62.21
56400;BME280;42298;53.638;9.876;2023-05-19T03:46:51;102655.41;;;9.74;63.09
56400;BME280;42298;53.638;9.876;2023-05-19T03:49:16;102655.28;;;9.86;62.29
56400;BME280;42298;53.638;9.876;2023-05-19T03:51:41;102662.78;;;9.96;62.79
56400;BME280;42298;53.638;9.876;2023-05-19T03:54:07;102657.94;;;10.03;62.99
56400;BME280;42298;53.638;9.876;2023-05-19T03:56:32;102669.00;;;10.08;62.23
56400;BME280;42298;53.638;9.876;2023-05-19T03:58:58;102655.81;;;10.10;63.09
56400;BME280;42298;53.638;9.876;2023-05-19T04:01:23;102663.88;;;10.16;63.00
56400;BME280;42298;53.638;9.876;2023-05-19T04:03:49;102668.56;;;10.16;62.70
56400;BME280;42298;53.638;9.876;2023-05-19T04:06:14;102667.50;;;10.22;62.84
56400;BME280;42298;53.638;9.876;2023-05-19T04:08:39;102673.06;;;10.27;62.75
56400;BME280;42298;53.638;9.876;2023-05-19T04:11:05;102673.34;;;10.25;63.23
56400;BME280;42298;53.638;9.876;2023-05-19T04:13:33;102672.75;;;10.23;63.15
56400;BME280;42298;53.638;9.876;2023-05-19T04:15:58;102679.13;;;10.29;62.93
56400;BME280;42298;53.638;9.876;2023-05-19T04:18:24;102667.56;;;10.27;63.41
56400;BME280;42298;53.638;9.876;2023-05-19T04:20:49;102672.53;;;10.30;63.86
56400;BME280;42298;53.638;9.876;2023-05-19T04:23:15;102678.41;;;10.38;63.20
56400;BME280;42298;53.638;9.876;2023-05-19T04:25:40;102676.09;;;10.57;63.18
56400;BME280;42298;53.638;9.876;2023-05-19T04:28:07;102677.91;;;10.78;62.68
56400;BME280;42298;53.638;9.876;2023-05-19T04:30:32;102672.38;;;10.73;62.16
56400;BME280;42298;53.638;9.876;2023-05-19T04:32:58;102669.47;;;10.89;62.10
56400;BME280;42298;53.638;9.876;2023-05-19T04:35:25;102679.03;;;11.18;62.07
56400;BME280;42298;53.638;9.876;2023-05-19T04:37:50;102679.94;;;11.39;61.30
56400;BME280;42298;53.638;9.876;2023-05-19T04:40:18;102675.91;;;11.61;60.73
56400;BME280;42298;53.638;9.876;2023-05-19T04:42:45;102673.00;;;11.73;60.79
56400;BME280;42298;53.638;9.876;2023-05-19T04:45:10;102666.91;;;11.81;59.98
56400;BME280;42298;53.638;9.876;2023-05-19T04:47:39;102674.66;;;11.79;59.74
56400;BME280;42298;53.638;9.876;2023-05-19T04:50:07;102675.19;;;11.81;59.92
56400;BME280;42298;53.638;9.876;2023-05-19T04:52:35;102684.31;;;11.82;59.87
56400;BME280;42298;53.638;9.876;2023-05-19T04:55:02;102677.97;;;11.81;60.03
56400;BME280;42298;53.638;9.876;2023-05-19T04:57:27;102671.91;;;11.79;60.25
56400;BME280;42298;53.638;9.876;2023-05-19T04:59:52;102682.97;;;11.89;60.47
56400;BME280;42298;53.638;9.876;2023-05-19T05:02:25;102679.13;;;11.95;59.62
56400;BME280;42298;53.638;9.876;2023-05-19T05:04:52;102689.13;;;12.16;59.66
56400;BME280;42298;53.638;9.876;2023-05-19T05:07:19;102688.03;;;12.22;59.49
56400;BME280;42298;53.638;9.876;2023-05-19T05:09:46;102684.72;;;12.25;59.76
56400;BME280;42298;53.638;9.876;2023-05-19T05:12:12;102694.13;;;12.34;60.01
56400;BME280;42298;53.638;9.876;2023-05-19T05:14:37;102690.00;;;12.42;58.79
56400;BME280;42298;53.638;9.876;2023-05-19T05:17:04;102685.56;;;12.36;59.07
56400;BME280;42298;53.638;9.876;2023-05-19T05:19:30;102688.88;;;12.33;59.02
56400;BME280;42298;53.638;9.876;2023-05-19T05:21:56;102681.69;;;12.27;59.37
56400;BME280;42298;53.638;9.876;2023-05-19T05:24:22;102685.81;;;12.29;59.31
56400;BME280;42298;53.638;9.876;2023-05-19T05:26:48;102687.50;;;12.30;59.56
56400;BME280;42298;53.638;9.876;2023-05-19T05:29:13;102682.53;;;12.47;59.75
56400;BME280;42298;53.638;9.876;2023-05-19T05:31:38;102675.34;;;12.56;58.96
56400;BME280;42298;53.638;9.876;2023-05-19T05:34:04;102680.31;;;12.59;59.30
56400;BME280;42298;53.638;9.876;2023-05-19T05:36:29;102690.81;;;12.77;58.89
56400;BME280;42298;53.638;9.876;2023-05-19T05:38:56;102680.31;;;12.79;59.04
56400;BME280;42298;53.638;9.876;2023-05-19T05:41:23;102682.81;;;12.91;59.13
56400;BME280;42298;53.638;9.876;2023-05-19T05:43:51;102682.53;;;13.07;58.08
56400;BME280;42298;53.638;9.876;2023-05-19T05:46:16;102684.75;;;13.15;57.87
56400;BME280;42298;53.638;9.876;2023-05-19T05:48:42;102685.53;;;13.16;58.15
56400;BME280;42298;53.638;9.876;2023-05-19T05:51:07;102682.50;;;13.27;58.16
56400;BME280;42298;53.638;9.876;2023-05-19T05:53:39;102685.50;;;13.31;58.00
56400;BME280;42298;53.638;9.876;2023-05-19T05:56:06;102692.13;;;13.35;57.98
56400;BME280;42298;53.638;9.876;2023-05-19T05:58:32;102690.75;;;13.37;57.36
56400;BME280;42298;53.638;9.876;2023-05-19T06:00:58;102689.97;;;13.32;57.24
56400;BME280;42298;53.638;9.876;2023-05-19T06:03:26;102693.56;;;13.22;57.24
56400;BME280;42298;53.638;9.876;2023-05-19T06:05:51;102694.13;;;13.24;57.41
56400;BME280;42298;53.638;9.876;2023-05-19T06:08:16;102696.28;;;13.42;56.88
56400;BME280;42298;53.638;9.876;2023-05-19T06:10:41;102689.59;;;13.59;56.82
56400;BME280;42298;53.638;9.876;2023-05-19T06:13:07;102679.53;;;13.78;57.08
56400;BME280;42298;53.638;9.876;2023-05-19T06:15:32;102691.63;;;13.97;56.44
56400;BME280;42298;53.638;9.876;2023-05-19T06:17:58;102690.16;;;14.14;55.91
56400;BME280;42298;53.638;9.876;2023-05-19T06:20:24;102690.13;;;14.24;55.02
56400;BME280;42298;53.638;9.876;2023-05-19T06:22:50;102688.69;;;14.32;54.34
56400;BME280;42298;53.638;9.876;2023-05-19T06:25:17;102690.78;;;14.45;54.45
56400;BME280;42298;53.638;9.876;2023-05-19T06:27:45;102686.28;;;14.54;54.35
56400;BME280;42298;53.638;9.876;2023-05-19T06:30:11;102693.13;;;14.66;53.43
56400;BME280;42298;53.638;9.876;2023-05-19T06:32:36;102691.28;;;14.85;53.24
56400;BME280;42298;53.638;9.876;2023-05-19T06:35:04;102693.94;;;15.00;52.89
56400;BME280;42298;53.638;9.876;2023-05-19T06:37:29;102688.41;;;15.24;52.27
56400;BME280;42298;53.638;9.876;2023-05-19T06:39:55;102683.00;;;15.61;52.39
56400;BME280;42298;53.638;9.876;2023-05-19T06:42:20;102695.53;;;15.82;51.00
56400;BME280;42298;53.638;9.876;2023-05-19T06:44:51;102691.13;;;16.00;49.97
56400;BME280;42298;53.638;9.876;2023-05-19T06:47:16;102697.09;;;16.12;50.13
56400;BME280;42298;53.638;9.876;2023-05-19T06:49:43;102690.47;;;16.45;49.33
56400;BME280;42298;53.638;9.876;2023-05-19T06:52:08;102704.59;;;16.67;48.49
56400;BME280;42298;53.638;9.876;2023-05-19T06:54:34;102691.09;;;16.92;48.04
56400;BME280;42298;53.638;9.876;2023-05-19T06:56:59;102694.25;;;17.32;47.23
56400;BME280;42298;53.638;9.876;2023-05-19T06:59:24;102693.03;;;17.65;46.63
56400;BME280;42298;53.638;9.876;2023-05-19T07:01:50;102701.69;;;18.04;45.08
56400;BME280;42298;53.638;9.876;2023-05-19T07:04:15;102693.69;;;18.38;44.56
56400;BME280;42298;53.638;9.876;2023-05-19T07:06:40;102693.56;;;18.43;43.81
56400;BME280;42298;53.638;9.876;2023-05-19T07:09:07;102699.16;;;18.65;43.89
56400;BME280;42298;53.638;9.876;2023-05-19T07:11:33;102701.72;;;18.75;43.74
56400;BME280;42298;53.638;9.876;2023-05-19T07:13:58;102703.47;;;18.93;43.62
56400;BME280;42298;53.638;9.876;2023-05-19T07:16:23;102703.19;;;19.03;43.30
56400;BME280;42298;53.638;9.876;2023-05-19T07:18:49;102698.72;;;19.55;43.00
56400;BME280;42298;53.638;9.876;2023-05-19T07:21:14;102694.06;;;19.89;41.53
56400;BME280;42298;53.638;9.876;2023-05-19T07:23:39;102698.09;;;20.14;41.67
56400;BME280;42298;53.638;9.876;2023-05-19T07:26:05;102702.00;;;19.96;41.13
56400;BME280;42298;53.638;9.876;2023-05-19T07:28:30;102690.72;;;19.70;40.86
56400;BME280;42298;53.638;9.876;2023-05-19T07:30:55;102701.25;;;19.73;41.34
56400;BME280;42298;53.638;9.876;2023-05-19T07:33:21;102702.09;;;19.74;41.23
56400;BME280;42298;53.638;9.876;2023-05-19T07:35:46;102697.31;;;19.74;41.64
56400;BME280;42298;53.638;9.876;2023-05-19T07:38:12;102694.94;;;19.59;41.38
56400;BME280;42298;53.638;9.876;2023-05-19T07:40:37;102694.91;;;19.90;41.11
56400;BME280;42298;53.638;9.876;2023-05-19T07:43:02;102707.34;;;20.31;40.88
56400;BME280;42298;53.638;9.876;2023-05-19T07:45:28;102695.81;;;20.75;40.13
56400;BME280;42298;53.638;9.876;2023-05-19T07:47:53;102702.22;;;20.93;39.23
56400;BME280;42298;53.638;9.876;2023-05-19T07:50:19;102695.44;;;20.94;39.09
56400;BME280;42298;53.638;9.876;2023-05-19T07:52:45;102699.34;;;21.36;38.91
56400;BME280;42298;53.638;9.876;2023-05-19T07:55:10;102692.72;;;21.32;37.95
56400;BME280;42298;53.638;9.876;2023-05-19T07:57:36;102694.47;;;21.53;38.41
56400;BME280;42298;53.638;9.876;2023-05-19T08:00:01;102682.72;;;21.22;37.92
56400;BME280;42298;53.638;9.876;2023-05-19T08:02:26;102676.00;;;21.15;38.08
56400;BME280;42298;53.638;9.876;2023-05-19T08:04:52;102676.56;;;21.75;37.98
56400;BME280;42298;53.638;9.876;2023-05-19T08:07:18;102677.31;;;22.13;37.43
56400;BME280;42298;53.638;9.876;2023-05-19T08:09:43;102673.44;;;22.67;36.02
56400;BME280;42298;53.638;9.876;2023-05-19T08:12:08;102685.50;;;23.00;35.98
56400;BME280;42298;53.638;9.876;2023-05-19T08:14:34;102673.94;;;23.14;34.88
56400;BME280;42298;53.638;9.876;2023-05-19T08:16:59;102688.19;;;23.65;34.24
56400;BME280;42298;53.638;9.876;2023-05-19T08:19:25;102676.56;;;23.55;33.59
56400;BME280;42298;53.638;9.876;2023-05-19T08:21:50;102681.28;;;23.99;32.59
56400;BME280;42298;53.638;9.876;2023-05-19T08:24:16;102676.47;;;23.51;33.65
56400;BME280;42298;53.638;9.876;2023-05-19T08:26:42;102660.81;;;23.18;34.45
56400;BME280;42298;53.638;9.876;2023-05-19T08:29:08;102674.56;;;23.31;33.85
56400;BME280;42298;53.638;9.876;2023-05-19T08:31:33;102671.09;;;23.02;34.45
56400;BME280;42298;53.638;9.876;2023-05-19T08:33:58;102666.19;;;22.78;34.87
56400;BME280;42298;53.638;9.876;2023-05-19T08:36:24;102671.34;;;22.76;35.38
56400;BME280;42298;53.638;9.876;2023-05-19T08:38:51;102672.34;;;22.39;34.98
56400;BME280;42298;53.638;9.876;2023-05-19T08:41:16;102669.91;;;22.08;35.16
56400;BME280;42298;53.638;9.876;2023-05-19T08:43:42;102660.47;;;22.13;35.49
56400;BME280;42298;53.638;9.876;2023-05-19T08:46:12;102654.72;;;22.09;35.79
56400;BME280;42298;53.638;9.876;2023-05-19T08:48:41;102658.50;;;22.13;35.59
56400;BME280;42298;53.638;9.876;2023-05-19T08:51:25;102652.13;;;22.25;36.27
56400;BME280;42298;53.638;9.876;2023-05-19T08:53:55;102647.06;;;22.39;35.52
56400;BME280;42298;53.638;9.876;2023-05-19T08:56:22;102653.72;;;22.55;35.27
56400;BME280;42298;53.638;9.876;2023-05-19T08:58:49;102649.72;;;22.56;35.64
56400;BME280;42298;53.638;9.876;2023-05-19T09:01:16;102647.22;;;22.75;35.89
56400;BME280;42298;53.638;9.876;2023-05-19T09:03:46;102637.47;;;22.40;35.61
56400;BME280;42298;53.638;9.876;2023-05-19T09:06:13;102638.97;;;22.17;36.12
56400;BME280;42298;53.638;9.876;2023-05-19T09:08:40;102635.63;;;22.23;36.15
56400;BME280;42298;53.638;9.876;2023-05-19T09:11:07;102637.75;;;22.06;35.79
56400;BME280;42298;53.638;9.876;2023-05-19T09:13:33;102643.22;;;21.82;36.67
56400;BME280;42298;53.638;9.876;2023-05-19T09:15:59;102639.59;;;22.02;36.36
56400;BME280;42298;53.638;9.876;2023-05-19T09:18:26;102640.06;;;22.66;36.47
56400;BME280;42298;53.638;9.876;2023-05-19T09:20:59;102637.50;;;23.17;35.74
56400;BME280;42298;53.638;9.876;2023-05-19T09:23:28;102644.63;;;23.03;35.19
56400;BME280;42298;53.638;9.876;2023-05-19T09:25:56;102632.31;;;22.95;35.40
56400;BME280;42298;53.638;9.876;2023-05-19T09:28:29;102639.94;;;22.62;35.38
56400;BME280;42298;53.638;9.876;2023-05-19T09:30:59;102645.34;;;22.46;35.65
56400;BME280;42298;53.638;9.876;2023-05-19T09:33:25;102633.97;;;22.64;35.19
56400;BME280;42298;53.638;9.876;2023-05-19T09:35:53;102629.13;;;22.52;35.40
56400;BME280;42298;53.638;9.876;2023-05-19T09:38:20;102634.09;;;22.67;35.40
56400;BME280;42298;53.638;9.876;2023-05-19T09:40:47;102637.16;;;22.74;35.31
56400;BME280;42298;53.638;9.876;2023-05-19T09:43:14;102630.16;;;22.80;34.68
56400;BME280;42298;53.638;9.876;2023-05-19T09:45:39;102623.13;;;23.31;34.64
56400;BME280;42298;53.638;9.876;2023-05-19T09:48:05;102613.50;;;23.68;33.42
56400;BME280;42298;53.638;9.876;2023-05-19T09:50:31;102629.53;;;23.19;34.10
56400;BME280;42298;53.638;9.876;2023-05-19T09:52:56;102616.47;;;22.91;34.66
56400;BME280;42298;53.638;9.876;2023-05-19T09:55:25;102621.63;;;22.89;34.23
56400;BME280;42298;53.638;9.876;2023-05-19T09:57:53;102630.78;;;22.98;34.19
56400;BME280;42298;53.638;9.876;2023-05-19T10:00:20;102617.31;;;22.38;34.57
56400;BME280;42298;53.638;9.876;2023-05-19T10:02:47;102615.03;;;22.19;35.01
56400;BME280;42298;53.638;9.876;2023-05-19T10:05:15;102614.53;;;22.17;36.16
56400;BME280;42298;53.638;9.876;2023-05-19T10:07:52;102601.34;;;22.83;35.17
56400;BME280;42298;53.638;9.876;2023-05-19T10:10:19;102606.16;;;23.27;34.48
56400;BME280;42298;53.638;9.876;2023-05-19T10:12:45;102602.00;;;23.13;33.61
56400;BME280;42298;53.638;9.876;2023-05-19T10:15:12;102605.31;;;22.70;34.32
56400;BME280;42298;53.638;9.876;2023-05-19T10:17:39;102598.97;;;22.61;34.08
56400;BME280;42298;53.638;9.876;2023-05-19T10:20:15;102608.53;;;22.60;34.05
56400;BME280;42298;53.638;9.876;2023-05-19T10:22:42;102594.78;;;22.67;34.64
56400;BME280;42298;53.638;9.876;2023-05-19T10:25:08;102595.84;;;22.42;34.04
56400;BME280;42298;53.638;9.876;2023-05-19T10:27:37;102596.63;;;22.63;33.71
56400;BME280;42298;53.638;9.876;2023-05-19T10:30:20;102594.22;;;22.86;33.75
56400;BME280;42298;53.638;9.876;2023-05-19T10:32:50;102587.84;;;22.52;34.70
56400;BME280;42298;53.638;9.876;2023-05-19T10:41:18;102581.91;;;22.45;35.17
56400;BME280;42298;53.638;9.876;2023-05-19T10:43:57;102574.59;;;22.32;35.26
56400;BME280;42298;53.638;9.876;2023-05-19T10:46:28;102583.53;;;22.14;35.07
56400;BME280;42298;53.638;9.876;2023-05-19T10:48:54;102585.59;;;22.25;35.11
56400;BME280;42298;53.638;9.876;2023-05-19T10:51:20;102576.34;;;22.25;34.27
56400;BME280;42298;53.638;9.876;2023-05-19T10:53:45;102589.75;;;21.99;35.19
56400;BME280;42298;53.638;9.876;2023-05-19T10:56:27;102588.59;;;22.20;35.13
56400;BME280;42298;53.638;9.876;2023-05-19T10:59:01;102580.03;;;22.37;35.10
56400;BME280;42298;53.638;9.876;2023-05-19T11:01:33;102572.25;;;22.55;35.23
56400;BME280;42298;53.638;9.876;2023-05-19T11:04:09;102576.25;;;22.54;35.73
56400;BME280;42298;53.638;9.876;2023-05-19T11:06:36;102577.13;;;22.79;33.52
56400;BME280;42298;53.638;9.876;2023-05-19T11:11:52;102566.78;;;22.38;35.09
56400;BME280;42298;53.638;9.876;2023-05-19T11:14:25;102573.47;;;22.45;34.25
56400;BME280;42298;53.638;9.876;2023-05-19T11:16:55;102572.97;;;22.52;33.17
56400;BME280;42298;53.638;9.876;2023-05-19T11:19:25;102553.09;;;22.57;33.35
56400;BME280;42298;53.638;9.876;2023-05-19T11:21:52;102556.69;;;22.58;34.29
56400;BME280;42298;53.638;9.876;2023-05-19T11:24:43;102560.03;;;22.84;34.25
56400;BME280;42298;53.638;9.876;2023-05-19T11:29:50;102543.25;;;22.75;34.29
56400;BME280;42298;53.638;9.876;2023-05-19T11:32:16;102545.00;;;22.35;34.35
56400;BME280;42298;53.638;9.876;2023-05-19T11:34:43;102539.97;;;22.28;34.58
56400;BME280;42298;53.638;9.876;2023-05-19T11:37:08;102550.59;;;22.02;35.33
56400;BME280;42298;53.638;9.876;2023-05-19T11:39:34;102527.63;;;21.88;35.47
56400;BME280;42298;53.638;9.876;2023-05-19T11:41:59;102536.38;;;21.87;35.22
56400;BME280;42298;53.638;9.876;2023-05-19T11:44:25;102532.19;;;22.13;35.42
56400;BME280;42298;53.638;9.876;2023-05-19T11:46:50;102540.72;;;22.17;33.45
56400;BME280;42298;53.638;9.876;2023-05-19T11:49:16;102543.38;;;22.01;33.19
56400;BME280;42298;53.638;9.876;2023-05-19T11:51:44;102542.59;;;22.13;33.67
56400;BME280;42298;53.638;9.876;2023-05-19T11:54:11;102559.69;;;22.20;33.30
56400;BME280;42298;53.638;9.876;2023-05-19T11:56:42;102538.06;;;22.53;33.57
56400;BME280;42298;53.638;9.876;2023-05-19T11:59:08;102543.03;;;22.68;33.77
56400;BME280;42298;53.638;9.876;2023-05-19T12:01:34;102542.13;;;22.88;33.15
56400;BME280;42298;53.638;9.876;2023-05-19T12:04:09;102547.81;;;22.68;33.28
56400;BME280;42298;53.638;9.876;2023-05-19T12:06:34;102542.41;;;22.50;33.43
56400;BME280;42298;53.638;9.876;2023-05-19T12:09:01;102547.13;;;22.38;33.16
56400;BME280;42298;53.638;9.876;2023-05-19T12:11:27;102538.16;;;22.12;32.71
56400;BME280;42298;53.638;9.876;2023-05-19T12:13:54;102541.28;;;21.90;33.08
56400;BME280;42298;53.638;9.876;2023-05-19T12:16:22;102532.69;;;21.95;33.37
56400;BME280;42298;53.638;9.876;2023-05-19T12:18:47;102528.91;;;22.11;33.51
56400;BME280;42298;53.638;9.876;2023-05-19T12:21:13;102534.53;;;22.11;34.25
56400;BME280;42298;53.638;9.876;2023-05-19T12:23:39;102532.09;;;21.89;33.47
56400;BME280;42298;53.638;9.876;2023-05-19T12:26:06;102529.81;;;21.83;33.88
56400;BME280;42298;53.638;9.876;2023-05-19T12:28:32;102518.44;;;21.79;34.93
56400;BME280;42298;53.638;9.876;2023-05-19T12:30:57;102529.75;;;22.12;35.48
56400;BME280;42298;53.638;9.876;2023-05-19T12:33:24;102525.91;;;22.16;33.54
56400;BME280;42298;53.638;9.876;2023-05-19T12:35:50;102519.94;;;22.18;32.48
56400;BME280;42298;53.638;9.876;2023-05-19T12:38:15;102507.31;;;22.24;32.59
56400;BME280;42298;53.638;9.876;2023-05-19T12:40:43;102500.06;;;22.23;33.27
56400;BME280;42298;53.638;9.876;2023-05-19T12:43:18;102511.91;;;22.08;33.46
56400;BME280;42298;53.638;9.876;2023-05-19T12:45:46;102505.06;;;21.85;33.30
56400;BME280;42298;53.638;9.876;2023-05-19T12:48:12;102504.63;;;21.95;33.25
56400;BME280;42298;53.638;9.876;2023-05-19T12:50:40;102503.78;;;21.94;32.95
56400;BME280;42298;53.638;9.876;2023-05-19T12:53:10;102508.75;;;21.77;33.95
56400;BME280;42298;53.638;9.876;2023-05-19T12:55:41;102515.00;;;21.53;34.21
56400;BME280;42298;53.638;9.876;2023-05-19T12:58:09;102504.22;;;21.43;32.99
56400;BME280;42298;53.638;9.876;2023-05-19T13:00:44;102510.50;;;21.61;32.76
56400;BME280;42298;53.638;9.876;2023-05-19T13:03:18;102488.94;;;21.73;32.85
56400;BME280;42298;53.638;9.876;2023-05-19T13:05:46;102490.09;;;22.13;33.97
56400;BME280;42298;53.638;9.876;2023-05-19T13:08:13;102486.75;;;22.32;32.92
56400;BME280;42298;53.638;9.876;2023-05-19T13:10:42;102480.34;;;22.43;32.71
56400;BME280;42298;53.638;9.876;2023-05-19T13:13:10;102497.88;;;22.28;32.58
56400;BME280;42298;53.638;9.876;2023-05-19T13:15:40;102480.16;;;22.16;32.63
56400;BME280;42298;53.638;9.876;2023-05-19T13:18:07;102483.22;;;22.23;32.82
56400;BME280;42298;53.638;9.876;2023-05-19T13:20:33;102490.91;;;22.14;32.16
56400;BME280;42298;53.638;9.876;2023-05-19T13:22:59;102493.16;;;21.88;32.64
56400;BME280;42298;53.638;9.876;2023-05-19T13:25:25;102490.66;;;22.07;33.37
56400;BME280;42298;53.638;9.876;2023-05-19T13:27:50;102492.13;;;22.25;32.64